sensor_id;sensor_type;location;lat;lon;timestamp;temperature;humidity
15288;DHT22;7745;48.708;9.026;2022-12-26T00:01:55;9.40;99.90
15288;DHT22;7745;48.708;9.026;2022-12-26T00:04:25;9.40;99.90
15288;DHT22;7745;48.708;9.026;2022-12-26T00:06:55;9.50;99.90
15288;DHT22;7745;48.708;9.026;2022-12-26T00:09:25;9.70;99.90
15288;DHT22;7745;48.708;9.026;2022-12-26T00:11:57;9.40;99.90
15288;DHT22;7745;48.708;9.026;2022-12-26T00:14:26;9.40;99.90
15288;DHT22;7745;48.708;9.026;2022-12-26T00:16:56;9.30;99.90
15288;DHT22;7745;48.708;9.026;2022-12-26T00:19:23;9.70;99.90
15288;DHT22;7745;48.708;9.026;2022-12-26T00:21:50;9.20;99.90
15288;DHT22;7745;48.708;9.026;2022-12-26T00:24:18;9.20;99.90
15288;DHT22;7745;48.708;9.026;2022-12-26T00:26:45;9.20;99.90
15288;DHT22;7745;48.708;9.026;2022-12-26T00:29:12;9.40;99.90
15288;DHT22;7745;48.708;9.026;2022-12-26T00:31:39;9.40;99.90
15288;DHT22;7745;48.708;9.026;2022-12-26T00:34:06;9.30;99.90
15288;DHT22;7745;48.708;9.026;2022-12-26T00:36:33;9.20;99.90
15288;DHT22;7745;48.708;9.026;2022-12-26T00:39:02;9.20;99.90
15288;DHT22;7745;48.708;9.026;2022-12-26T00:41:30;9.40;99.90
15288;DHT22;7745;48.708;9.026;2022-12-26T00:43:57;9.50;99.90
15288;DHT22;7745;48.708;9.026;2022-12-26T00:46:25;9.50;99.90
15288;DHT22;7745;48.708;9.026;2022-12-26T00:48:53;9.30;99.90
15288;DHT22;7745;48.708;9.026;2022-12-26T00:51:20;9.20;99.90
15288;DHT22;7745;48.708;9.026;2022-12-26T00:53:47;9.10;99.90
15288;DHT22;7745;48.708;9.026;2022-12-26T00:56:14;9.20;99.90
15288;DHT22;7745;48.708;9.026;2022-12-26T00:58:43;9.20;99.90
15288;DHT22;7745;48.708;9.026;2022-12-26T01:01:12;9.60;99.90
15288;DHT22;7745;48.708;9.026;2022-12-26T01:03:40;9.20;99.90
15288;DHT22;7745;48.708;9.026;2022-12-26T01:06:07;9.20;99.90
15288;DHT22;7745;48.708;9.026;2022-12-26T01:08:34;9.10;99.90
15288;DHT22;7745;48.708;9.026;2022-12-26T01:11:03;9.10;99.90
15288;DHT22;7745;48.708;9.026;2022-12-26T01:13:31;9.10;99.90
15288;DHT22;7745;48.708;9.026;2022-12-26T01:15:59;9.00;99.90
15288;DHT22;7745;48.708;9.026;2022-12-26T01:18:26;9.00;99.90
15288;DHT22;7745;48.708;9.026;2022-12-26T01:20:57;9.00;99.90
15288;DHT22;7745;48.708;9.026;2022-12-26T01:23:25;9.00;99.90
15288;DHT22;7745;48.708;9.026;2022-12-26T01:25:52;9.10;99.90
15288;DHT22;7745;48.708;9.026;2022-12-26T01:28:19;9.20;99.90
15288;DHT22;7745;48.708;9.026;2022-12-26T01:30:46;9.10;99.90
15288;DHT22;7745;48.708;9.026;2022-12-26T01:33:14;9.10;99.90
15288;DHT22;7745;48.708;9.026;2022-12-26T01:35:49;9.20;99.90
15288;DHT22;7745;48.708;9.026;2022-12-26T01:38:16;9.10;99.90
15288;DHT22;7745;48.708;9.026;2022-12-26T01:40:44;9.50;99.90
15288;DHT22;7745;48.708;9.026;2022-12-26T01:43:12;9.30;99.90
15288;DHT22;7745;48.708;9.026;2022-12-26T01:45:39;9.20;99.90
15288;DHT22;7745;48.708;9.026;2022-12-26T01:48:15;9.40;99.90
15288;DHT22;7745;48.708;9.026;2022-12-26T01:50:47;9.50;99.90
15288;DHT22;7745;48.708;9.026;2022-12-26T01:53:19;9.10;99.90
15288;DHT22;7745;48.708;9.026;2022-12-26T01:55:51;9.20;99.90
15288;DHT22;7745;48.708;9.026;2022-12-26T01:58:23;9.20;99.90
15288;DHT22;7745;48.708;9.026;2022-12-26T02:00:52;9.50;99.90
15288;DHT22;7745;48.708;9.026;2022-12-26T02:03:21;9.30;99.90
15288;DHT22;7745;48.708;9.026;2022-12-26T02:06:07;9.60;99.90
15288;DHT22;7745;48.708;9.026;2022-12-26T02:08:36;9.30;99.90
15288;DHT22;7745;48.708;9.026;2022-12-26T02:11:09;9.30;99.90
15288;DHT22;7745;48.708;9.026;2022-12-26T02:13:38;9.40;99.90
15288;DHT22;7745;48.708;9.026;2022-12-26T02:16:08;9.20;99.90
15288;DHT22;7745;48.708;9.026;2022-12-26T02:18:37;9.30;99.90
15288;DHT22;7745;48.708;9.026;2022-12-26T02:21:19;9.70;99.90
15288;DHT22;7745;48.708;9.026;2022-12-26T02:27:09;9.30;99.90
15288;DHT22;7745;48.708;9.026;2022-12-26T02:36:13;9.30;99.90
15288;DHT22;7745;48.708;9.026;2022-12-26T02:38:49;9.40;99.90
15288;DHT22;7745;48.708;9.026;2022-12-26T02:41:24;9.70;99.90
15288;DHT22;7745;48.708;9.026;2022-12-26T02:43:59;9.40;99.90
15288;DHT22;7745;48.708;9.026;2022-12-26T02:46:53;9.50;99.90
15288;DHT22;7745;48.708;9.026;2022-12-26T02:49:37;9.50;99.90
15288;DHT22;7745;48.708;9.026;2022-12-26T02:52:28;9.50;99.90
15288;DHT22;7745;48.708;9.026;2022-12-26T02:55:15;9.50;99.90
15288;DHT22;7745;48.708;9.026;2022-12-26T02:58:04;9.80;99.90
15288;DHT22;7745;48.708;9.026;2022-12-26T03:00:51;9.70;99.90
15288;DHT22;7745;48.708;9.026;2022-12-26T03:03:39;9.60;99.90
15288;DHT22;7745;48.708;9.026;2022-12-26T03:06:26;9.50;99.90
15288;DHT22;7745;48.708;9.026;2022-12-26T03:09:17;9.70;99.90
15288;DHT22;7745;48.708;9.026;2022-12-26T03:12:06;9.70;99.90
15288;DHT22;7745;48.708;9.026;2022-12-26T03:14:52;9.40;99.90
15288;DHT22;7745;48.708;9.026;2022-12-26T03:17:24;9.40;99.90
15288;DHT22;7745;48.708;9.026;2022-12-26T03:19:54;9.40;99.90
15288;DHT22;7745;48.708;9.026;2022-12-26T03:22:28;9.30;99.90
15288;DHT22;7745;48.708;9.026;2022-12-26T03:24:59;9.50;99.90
15288;DHT22;7745;48.708;9.026;2022-12-26T03:27:44;9.20;99.90
15288;DHT22;7745;48.708;9.026;2022-12-26T03:30:11;9.30;99.90
15288;DHT22;7745;48.708;9.026;2022-12-26T03:32:57;9.20;99.90
15288;DHT22;7745;48.708;9.026;2022-12-26T03:35:25;9.10;99.90
15288;DHT22;7745;48.708;9.026;2022-12-26T03:37:55;9.10;99.90
15288;DHT22;7745;48.708;9.026;2022-12-26T03:40:38;9.60;99.90
15288;DHT22;7745;48.708;9.026;2022-12-26T03:43:30;9.20;99.90
15288;DHT22;7745;48.708;9.026;2022-12-26T03:46:24;9.30;99.90
15288;DHT22;7745;48.708;9.026;2022-12-26T03:49:18;9.40;99.90
15288;DHT22;7745;48.708;9.026;2022-12-26T03:52:10;9.30;99.90
15288;DHT22;7745;48.708;9.026;2022-12-26T03:55:03;9.10;99.90
15288;DHT22;7745;48.708;9.026;2022-12-26T03:57:53;9.20;99.90
15288;DHT22;7745;48.708;9.026;2022-12-26T04:00:52;9.30;99.90
15288;DHT22;7745;48.708;9.026;2022-12-26T04:03:39;9.20;99.90
15288;DHT22;7745;48.708;9.026;2022-12-26T04:06:27;9.00;99.90
15288;DHT22;7745;48.708;9.026;2022-12-26T04:09:18;8.90;99.90
15288;DHT22;7745;48.708;9.026;2022-12-26T04:12:05;9.10;99.90
15288;DHT22;7745;48.708;9.026;2022-12-26T04:14:54;9.00;99.90
15288;DHT22;7745;48.708;9.026;2022-12-26T04:17:51;9.10;99.90
15288;DHT22;7745;48.708;9.026;2022-12-26T04:20:44;9.10;99.90
15288;DHT22;7745;48.708;9.026;2022-12-26T04:23:17;9.30;99.90
15288;DHT22;7745;48.708;9.026;2022-12-26T04:26:07;9.20;99.90
15288;DHT22;7745;48.708;9.026;2022-12-26T04:28:53;9.20;99.90
15288;DHT22;7745;48.708;9.026;2022-12-26T04:31:44;9.60;99.90
15288;DHT22;7745;48.708;9.026;2022-12-26T04:34:37;9.30;99.90
15288;DHT22;7745;48.708;9.026;2022-12-26T04:37:25;9.90;99.90
15288;DHT22;7745;48.708;9.026;2022-12-26T04:40:16;9.60;99.90
15288;DHT22;7745;48.708;9.026;2022-12-26T04:43:03;9.30;99.90
15288;DHT22;7745;48.708;9.026;2022-12-26T04:45:48;9.30;99.90
15288;DHT22;7745;48.708;9.026;2022-12-26T04:48:17;9.60;99.90
15288;DHT22;7745;48.708;9.026;2022-12-26T04:51:01;9.60;99.90
15288;DHT22;7745;48.708;9.026;2022-12-26T04:53:29;9.20;99.90
15288;DHT22;7745;48.708;9.026;2022-12-26T04:55:56;9.20;99.90
15288;DHT22;7745;48.708;9.026;2022-12-26T04:58:23;9.30;99.90
15288;DHT22;7745;48.708;9.026;2022-12-26T05:00:52;9.20;99.90
15288;DHT22;7745;48.708;9.026;2022-12-26T05:03:40;9.20;99.90
15288;DHT22;7745;48.708;9.026;2022-12-26T05:06:25;9.20;99.90
15288;DHT22;7745;48.708;9.026;2022-12-26T05:09:09;9.30;99.90
15288;DHT22;7745;48.708;9.026;2022-12-26T05:11:54;9.30;99.90
15288;DHT22;7745;48.708;9.026;2022-12-26T05:14:21;9.30;99.90
15288;DHT22;7745;48.708;9.026;2022-12-26T05:16:48;9.30;99.90
15288;DHT22;7745;48.708;9.026;2022-12-26T05:19:36;9.30;99.90
15288;DHT22;7745;48.708;9.026;2022-12-26T05:22:21;9.30;99.90
15288;DHT22;7745;48.708;9.026;2022-12-26T05:25:09;9.20;99.90
15288;DHT22;7745;48.708;9.026;2022-12-26T05:27:58;9.20;99.90
15288;DHT22;7745;48.708;9.026;2022-12-26T05:30:45;9.30;99.90
15288;DHT22;7745;48.708;9.026;2022-12-26T05:33:12;9.20;99.90
15288;DHT22;7745;48.708;9.026;2022-12-26T05:35:58;9.20;99.90
15288;DHT22;7745;48.708;9.026;2022-12-26T05:38:41;9.20;99.90
15288;DHT22;7745;48.708;9.026;2022-12-26T05:41:37;9.20;99.90
15288;DHT22;7745;48.708;9.026;2022-12-26T05:44:09;9.40;99.90
15288;DHT22;7745;48.708;9.026;2022-12-26T05:46:43;9.60;99.90
15288;DHT22;7745;48.708;9.026;2022-12-26T05:49:26;9.20;99.90
15288;DHT22;7745;48.708;9.026;2022-12-26T05:52:13;9.30;99.90
15288;DHT22;7745;48.708;9.026;2022-12-26T05:54:49;9.30;99.90
15288;DHT22;7745;48.708;9.026;2022-12-26T05:57:19;9.30;99.90
15288;DHT22;7745;48.708;9.026;2022-12-26T05:59:58;9.20;99.90
15288;DHT22;7745;48.708;9.026;2022-12-26T06:02:35;9.30;99.90
15288;DHT22;7745;48.708;9.026;2022-12-26T06:05:24;9.40;99.90
15288;DHT22;7745;48.708;9.026;2022-12-26T06:08:01;9.50;99.90
15288;DHT22;7745;48.708;9.026;2022-12-26T06:10:38;9.40;99.90
15288;DHT22;7745;48.708;9.026;2022-12-26T06:13:27;9.40;99.90
15288;DHT22;7745;48.708;9.026;2022-12-26T06:22:37;9.20;99.90
15288;DHT22;7745;48.708;9.026;2022-12-26T06:25:12;9.20;99.90
15288;DHT22;7745;48.708;9.026;2022-12-26T06:27:41;9.30;99.90
15288;DHT22;7745;48.708;9.026;2022-12-26T06:30:27;9.30;99.90
15288;DHT22;7745;48.708;9.026;2022-12-26T06:33:11;9.20;99.90
15288;DHT22;7745;48.708;9.026;2022-12-26T06:36:00;9.20;99.90
15288;DHT22;7745;48.708;9.026;2022-12-26T06:38:43;9.20;99.90
15288;DHT22;7745;48.708;9.026;2022-12-26T06:41:18;9.20;99.90
15288;DHT22;7745;48.708;9.026;2022-12-26T06:47:27;9.20;99.90
15288;DHT22;7745;48.708;9.026;2022-12-26T06:50:10;9.20;99.90
15288;DHT22;7745;48.708;9.026;2022-12-26T06:52:41;9.30;99.90
15288;DHT22;7745;48.708;9.026;2022-12-26T06:55:17;9.30;99.90
15288;DHT22;7745;48.708;9.026;2022-12-26T07:01:18;9.40;99.90
15288;DHT22;7745;48.708;9.026;2022-12-26T07:04:19;9.60;99.90
15288;DHT22;7745;48.708;9.026;2022-12-26T07:07:03;9.40;99.90
15288;DHT22;7745;48.708;9.026;2022-12-26T07:37:37;9.60;99.90
15288;DHT22;7745;48.708;9.026;2022-12-26T07:46:56;9.50;99.90
15288;DHT22;7745;48.708;9.026;2022-12-26T07:49:23;9.50;99.90
15288;DHT22;7745;48.708;9.026;2022-12-26T08:02:39;9.40;99.90
15288;DHT22;7745;48.708;9.026;2022-12-26T08:05:31;9.50;99.90
15288;DHT22;7745;48.708;9.026;2022-12-26T08:11:15;9.40;99.90
15288;DHT22;7745;48.708;9.026;2022-12-26T08:13:42;9.40;99.90
15288;DHT22;7745;48.708;9.026;2022-12-26T08:16:11;9.30;99.90
15288;DHT22;7745;48.708;9.026;2022-12-26T08:18:40;9.30;99.90
15288;DHT22;7745;48.708;9.026;2022-12-26T08:21:07;9.30;99.90
15288;DHT22;7745;48.708;9.026;2022-12-26T08:23:34;9.40;99.90
15288;DHT22;7745;48.708;9.026;2022-12-26T08:26:05;9.40;99.90
15288;DHT22;7745;48.708;9.026;2022-12-26T08:28:37;9.50;99.90
15288;DHT22;7745;48.708;9.026;2022-12-26T08:31:05;9.50;99.90
15288;DHT22;7745;48.708;9.026;2022-12-26T08:33:33;9.60;99.90
15288;DHT22;7745;48.708;9.026;2022-12-26T08:36:11;9.60;99.90
15288;DHT22;7745;48.708;9.026;2022-12-26T08:39:06;9.60;99.90
15288;DHT22;7745;48.708;9.026;2022-12-26T08:41:39;9.70;99.90
15288;DHT22;7745;48.708;9.026;2022-12-26T08:44:07;9.70;99.90
15288;DHT22;7745;48.708;9.026;2022-12-26T08:46:41;10.00;99.90
15288;DHT22;7745;48.708;9.026;2022-12-26T08:49:37;9.70;99.90
15288;DHT22;7745;48.708;9.026;2022-12-26T08:52:35;9.70;99.90
15288;DHT22;7745;48.708;9.026;2022-12-26T08:55:18;9.60;99.90
15288;DHT22;7745;48.708;9.026;2022-12-26T08:58:33;9.80;99.90
15288;DHT22;7745;48.708;9.026;2022-12-26T09:01:09;9.60;99.90
15288;DHT22;7745;48.708;9.026;2022-12-26T09:03:38;9.60;99.90
15288;DHT22;7745;48.708;9.026;2022-12-26T09:06:34;9.50;99.90
15288;DHT22;7745;48.708;9.026;2022-12-26T09:12:39;9.30;99.90
15288;DHT22;7745;48.708;9.026;2022-12-26T09:15:14;9.50;99.90
15288;DHT22;7745;48.708;9.026;2022-12-26T09:17:54;9.50;99.90
15288;DHT22;7745;48.708;9.026;2022-12-26T09:20:35;9.50;99.90
15288;DHT22;7745;48.708;9.026;2022-12-26T09:23:03;9.30;99.90
15288;DHT22;7745;48.708;9.026;2022-12-26T09:25:33;9.30;99.90
15288;DHT22;7745;48.708;9.026;2022-12-26T09:28:01;9.40;99.90
15288;DHT22;7745;48.708;9.026;2022-12-26T09:30:37;9.60;99.90
15288;DHT22;7745;48.708;9.026;2022-12-26T09:33:08;9.40;99.90
15288;DHT22;7745;48.708;9.026;2022-12-26T09:35:49;9.40;99.90
15288;DHT22;7745;48.708;9.026;2022-12-26T09:38:20;9.30;99.90
15288;DHT22;7745;48.708;9.026;2022-12-26T09:41:19;9.70;99.90
15288;DHT22;7745;48.708;9.026;2022-12-26T09:44:19;9.30;99.90
15288;DHT22;7745;48.708;9.026;2022-12-26T09:47:02;9.30;99.90
15288;DHT22;7745;48.708;9.026;2022-12-26T09:49:38;9.30;99.90
15288;DHT22;7745;48.708;9.026;2022-12-26T09:52:13;9.20;99.90
15288;DHT22;7745;48.708;9.026;2022-12-26T09:54:45;9.40;99.90
15288;DHT22;7745;48.708;9.026;2022-12-26T09:57:15;9.40;99.90
15288;DHT22;7745;48.708;9.026;2022-12-26T09:59:49;9.40;99.90
15288;DHT22;7745;48.708;9.026;2022-12-26T10:02:19;9.40;99.90
15288;DHT22;7745;48.708;9.026;2022-12-26T10:04:52;9.30;99.90
15288;DHT22;7745;48.708;9.026;2022-12-26T10:07:28;9.40;99.90
15288;DHT22;7745;48.708;9.026;2022-12-26T10:10:10;9.40;99.90
15288;DHT22;7745;48.708;9.026;2022-12-26T10:13:36;9.40;99.90
15288;DHT22;7745;48.708;9.026;2022-12-26T10:16:09;9.40;99.90
15288;DHT22;7745;48.708;9.026;2022-12-26T10:18:51;9.40;99.90
15288;DHT22;7745;48.708;9.026;2022-12-26T10:21:45;9.30;99.90
15288;DHT22;7745;48.708;9.026;2022-12-26T10:24:26;9.30;99.90
15288;DHT22;7745;48.708;9.026;2022-12-26T10:27:01;9.30;99.90
15288;DHT22;7745;48.708;9.026;2022-12-26T10:29:32;9.20;99.90
15288;DHT22;7745;48.708;9.026;2022-12-26T10:32:15;9.20;99.90
15288;DHT22;7745;48.708;9.026;2022-12-26T10:34:46;9.20;99.90
15288;DHT22;7745;48.708;9.026;2022-12-26T10:37:36;9.20;99.90
15288;DHT22;7745;48.708;9.026;2022-12-26T10:40:37;9.40;99.90
15288;DHT22;7745;48.708;9.026;2022-12-26T10:43:24;9.30;99.90
15288;DHT22;7745;48.708;9.026;2022-12-26T10:48:57;9.30;99.90
15288;DHT22;7745;48.708;9.026;2022-12-26T10:54:43;9.20;99.90
15288;DHT22;7745;48.708;9.026;2022-12-26T10:57:35;9.60;99.90
15288;DHT22;7745;48.708;9.026;2022-12-26T11:11:54;9.60;99.90
15288;DHT22;7745;48.708;9.026;2022-12-26T11:17:47;9.70;99.90
15288;DHT22;7745;48.708;9.026;2022-12-26T11:20:52;10.30;99.90
15288;DHT22;7745;48.708;9.026;2022-12-26T11:23:25;9.90;99.90
15288;DHT22;7745;48.708;9.026;2022-12-26T11:26:18;9.80;99.90
15288;DHT22;7745;48.708;9.026;2022-12-26T11:28:47;9.90;99.90
15288;DHT22;7745;48.708;9.026;2022-12-26T11:31:30;10.00;99.90
15288;DHT22;7745;48.708;9.026;2022-12-26T11:33:58;9.90;99.90
15288;DHT22;7745;48.708;9.026;2022-12-26T11:36:27;10.40;99.90
15288;DHT22;7745;48.708;9.026;2022-12-26T11:38:59;9.90;99.90
15288;DHT22;7745;48.708;9.026;2022-12-26T11:41:36;10.10;99.90
15288;DHT22;7745;48.708;9.026;2022-12-26T11:44:19;10.20;99.90
15288;DHT22;7745;48.708;9.026;2022-12-26T11:46:50;10.00;99.90
15288;DHT22;7745;48.708;9.026;2022-12-26T11:49:22;9.90;99.90
15288;DHT22;7745;48.708;9.026;2022-12-26T11:51:51;9.90;99.90
15288;DHT22;7745;48.708;9.026;2022-12-26T11:54:22;10.10;99.90
15288;DHT22;7745;48.708;9.026;2022-12-26T11:57:15;9.90;99.90
15288;DHT22;7745;48.708;9.026;2022-12-26T11:59:52;10.10;99.90
15288;DHT22;7745;48.708;9.026;2022-12-26T12:02:42;9.90;99.90
15288;DHT22;7745;48.708;9.026;2022-12-26T12:05:35;9.90;99.90
15288;DHT22;7745;48.708;9.026;2022-12-26T12:11:36;10.00;99.90
15288;DHT22;7745;48.708;9.026;2022-12-26T12:20:40;10.00;99.90
15288;DHT22;7745;48.708;9.026;2022-12-26T12:23:35;10.10;99.90
15288;DHT22;7745;48.708;9.026;2022-12-26T12:27:08;10.20;99.90
15288;DHT22;7745;48.708;9.026;2022-12-26T12:30:01;10.20;99.90
15288;DHT22;7745;48.708;9.026;2022-12-26T12:32:56;10.00;99.90
15288;DHT22;7745;48.708;9.026;2022-12-26T12:35:38;10.20;99.90
15288;DHT22;7745;48.708;9.026;2022-12-26T12:39:43;10.20;99.90
15288;DHT22;7745;48.708;9.026;2022-12-26T12:41:59;10.30;99.90
15288;DHT22;7745;48.708;9.026;2022-12-26T12:44:42;10.10;99.90
15288;DHT22;7745;48.708;9.026;2022-12-26T12:47:27;10.10;99.90
15288;DHT22;7745;48.708;9.026;2022-12-26T12:50:06;10.10;99.90
15288;DHT22;7745;48.708;9.026;2022-12-26T12:52:42;10.20;99.90
15288;DHT22;7745;48.708;9.026;2022-12-26T12:55:25;10.10;99.90
15288;DHT22;7745;48.708;9.026;2022-12-26T12:57:59;10.00;99.90
15288;DHT22;7745;48.708;9.026;2022-12-26T13:00:44;10.00;99.90
15288;DHT22;7745;48.708;9.026;2022-12-26T13:03:33;9.80;99.90
15288;DHT22;7745;48.708;9.026;2022-12-26T13:06:05;10.10;99.90
15288;DHT22;7745;48.708;9.026;2022-12-26T13:08:37;10.00;99.90
15288;DHT22;7745;48.708;9.026;2022-12-26T13:11:07;10.10;99.90
15288;DHT22;7745;48.708;9.026;2022-12-26T13:13:47;10.20;99.90
15288;DHT22;7745;48.708;9.026;2022-12-26T13:16:32;10.00;99.90
15288;DHT22;7745;48.708;9.026;2022-12-26T13:19:04;9.90;99.90
15288;DHT22;7745;48.708;9.026;2022-12-26T13:21:38;9.90;99.90
15288;DHT22;7745;48.708;9.026;2022-12-26T13:24:15;10.10;99.90
15288;DHT22;7745;48.708;9.026;2022-12-26T13:26:56;9.90;99.90
15288;DHT22;7745;48.708;9.026;2022-12-26T13:29:34;10.10;99.90
15288;DHT22;7745;48.708;9.026;2022-12-26T13:32:04;9.90;99.90
15288;DHT22;7745;48.708;9.026;2022-12-26T13:34:33;9.80;99.90
15288;DHT22;7745;48.708;9.026;2022-12-26T13:37:02;10.10;99.90
15288;DHT22;7745;48.708;9.026;2022-12-26T13:39:35;10.00;99.90
15288;DHT22;7745;48.708;9.026;2022-12-26T13:42:21;10.20;99.90
15288;DHT22;7745;48.708;9.026;2022-12-26T13:51:57;10.00;99.90
15288;DHT22;7745;48.708;9.026;2022-12-26T13:54:27;10.10;99.90
15288;DHT22;7745;48.708;9.026;2022-12-26T13:57:26;10.00;99.90
15288;DHT22;7745;48.708;9.026;2022-12-26T14:00:02;10.00;99.90
15288;DHT22;7745;48.708;9.026;2022-12-26T14:03:01;9.90;99.90
15288;DHT22;7745;48.708;9.026;2022-12-26T14:05:48;9.90;99.90
15288;DHT22;7745;48.708;9.026;2022-12-26T14:08:30;10.00;99.90
15288;DHT22;7745;48.708;9.026;2022-12-26T14:11:19;9.90;99.90
15288;DHT22;7745;48.708;9.026;2022-12-26T14:13:59;9.90;99.90
15288;DHT22;7745;48.708;9.026;2022-12-26T14:16:33;9.90;99.90
15288;DHT22;7745;48.708;9.026;2022-12-26T14:19:15;10.20;99.90
15288;DHT22;7745;48.708;9.026;2022-12-26T14:22:04;9.80;99.90
15288;DHT22;7745;48.708;9.026;2022-12-26T14:24:45;9.80;99.90
15288;DHT22;7745;48.708;9.026;2022-12-26T14:27:36;9.80;99.90
15288;DHT22;7745;48.708;9.026;2022-12-26T14:30:27;9.80;99.90
15288;DHT22;7745;48.708;9.026;2022-12-26T14:33:07;9.80;99.90
15288;DHT22;7745;48.708;9.026;2022-12-26T14:35:44;9.70;99.90
15288;DHT22;7745;48.708;9.026;2022-12-26T14:38:23;9.70;99.90
15288;DHT22;7745;48.708;9.026;2022-12-26T14:40:59;9.70;99.90
15288;DHT22;7745;48.708;9.026;2022-12-26T14:43:50;9.70;99.90
15288;DHT22;7745;48.708;9.026;2022-12-26T14:46:55;9.70;99.90
15288;DHT22;7745;48.708;9.026;2022-12-26T14:49:24;9.70;99.90
15288;DHT22;7745;48.708;9.026;2022-12-26T14:55:45;9.70;99.90
15288;DHT22;7745;48.708;9.026;2022-12-26T14:59:31;9.70;99.90
15288;DHT22;7745;48.708;9.026;2022-12-26T15:05:27;9.70;99.90
15288;DHT22;7745;48.708;9.026;2022-12-26T15:08:13;9.60;99.90
15288;DHT22;7745;48.708;9.026;2022-12-26T15:18:39;9.60;99.90
15288;DHT22;7745;48.708;9.026;2022-12-26T15:34:56;9.40;99.90
15288;DHT22;7745;48.708;9.026;2022-12-26T15:41:15;9.40;99.90
15288;DHT22;7745;48.708;9.026;2022-12-26T15:44:13;9.40;99.90
15288;DHT22;7745;48.708;9.026;2022-12-26T15:47:11;9.50;99.90
15288;DHT22;7745;48.708;9.026;2022-12-26T15:50:02;9.40;99.90
15288;DHT22;7745;48.708;9.026;2022-12-26T15:52:42;9.40;99.90
15288;DHT22;7745;48.708;9.026;2022-12-26T15:55:39;9.50;99.90
15288;DHT22;7745;48.708;9.026;2022-12-26T16:01:50;9.40;99.90
15288;DHT22;7745;48.708;9.026;2022-12-26T16:11:16;9.30;99.90
15288;DHT22;7745;48.708;9.026;2022-12-26T16:30:48;9.30;99.90
15288;DHT22;7745;48.708;9.026;2022-12-26T16:36:27;9.20;99.90
15288;DHT22;7745;48.708;9.026;2022-12-26T16:43:21;9.30;99.90
15288;DHT22;7745;48.708;9.026;2022-12-26T16:46:28;9.10;99.90
15288;DHT22;7745;48.708;9.026;2022-12-26T16:49:15;9.10;99.90
15288;DHT22;7745;48.708;9.026;2022-12-26T16:51:54;9.10;99.90
15288;DHT22;7745;48.708;9.026;2022-12-26T16:54:52;9.00;99.90
15288;DHT22;7745;48.708;9.026;2022-12-26T16:57:58;9.10;99.90
15288;DHT22;7745;48.708;9.026;2022-12-26T17:00:36;9.00;99.90
15288;DHT22;7745;48.708;9.026;2022-12-26T17:03:51;8.80;99.90
15288;DHT22;7745;48.708;9.026;2022-12-26T17:09:47;9.00;99.90
15288;DHT22;7745;48.708;9.026;2022-12-26T17:12:48;9.00;99.90
15288;DHT22;7745;48.708;9.026;2022-12-26T17:15:33;8.90;99.90
15288;DHT22;7745;48.708;9.026;2022-12-26T17:21:33;8.90;99.90
15288;DHT22;7745;48.708;9.026;2022-12-26T17:24:24;8.90;99.90
15288;DHT22;7745;48.708;9.026;2022-12-26T17:27:06;8.90;99.90
15288;DHT22;7745;48.708;9.026;2022-12-26T17:29:53;9.00;99.90
15288;DHT22;7745;48.708;9.026;2022-12-26T17:32:35;9.20;99.90
15288;DHT22;7745;48.708;9.026;2022-12-26T17:35:06;9.30;99.90
15288;DHT22;7745;48.708;9.026;2022-12-26T17:37:41;9.00;99.90
15288;DHT22;7745;48.708;9.026;2022-12-26T17:40:44;9.20;99.90
15288;DHT22;7745;48.708;9.026;2022-12-26T17:43:30;9.00;99.90
15288;DHT22;7745;48.708;9.026;2022-12-26T17:46:12;9.30;99.90
15288;DHT22;7745;48.708;9.026;2022-12-26T17:48:40;9.10;99.90
15288;DHT22;7745;48.708;9.026;2022-12-26T17:51:14;9.00;99.90
15288;DHT22;7745;48.708;9.026;2022-12-26T17:53:47;9.00;99.90
15288;DHT22;7745;48.708;9.026;2022-12-26T17:56:17;9.00;99.90
15288;DHT22;7745;48.708;9.026;2022-12-26T17:58:45;8.90;99.90
15288;DHT22;7745;48.708;9.026;2022-12-26T18:01:12;8.90;99.90
15288;DHT22;7745;48.708;9.026;2022-12-26T18:03:40;8.80;99.90
15288;DHT22;7745;48.708;9.026;2022-12-26T18:06:08;9.10;99.90
15288;DHT22;7745;48.708;9.026;2022-12-26T18:08:37;9.00;99.90
15288;DHT22;7745;48.708;9.026;2022-12-26T18:11:10;8.70;99.90
15288;DHT22;7745;48.708;9.026;2022-12-26T18:13:37;8.90;99.90
15288;DHT22;7745;48.708;9.026;2022-12-26T18:16:05;8.90;99.90
15288;DHT22;7745;48.708;9.026;2022-12-26T18:18:34;8.70;99.90
15288;DHT22;7745;48.708;9.026;2022-12-26T18:21:03;8.70;99.90
15288;DHT22;7745;48.708;9.026;2022-12-26T18:23:30;8.50;99.90
15288;DHT22;7745;48.708;9.026;2022-12-26T18:25:59;8.40;99.90
15288;DHT22;7745;48.708;9.026;2022-12-26T18:28:27;8.50;99.90
15288;DHT22;7745;48.708;9.026;2022-12-26T18:30:54;8.30;99.90
15288;DHT22;7745;48.708;9.026;2022-12-26T18:33:22;8.50;99.90
15288;DHT22;7745;48.708;9.026;2022-12-26T18:35:49;8.20;99.90
15288;DHT22;7745;48.708;9.026;2022-12-26T18:38:18;8.10;99.90
15288;DHT22;7745;48.708;9.026;2022-12-26T18:40:47;8.00;99.90
15288;DHT22;7745;48.708;9.026;2022-12-26T18:43:14;8.00;99.90
15288;DHT22;7745;48.708;9.026;2022-12-26T18:45:42;8.00;99.90
15288;DHT22;7745;48.708;9.026;2022-12-26T18:48:13;7.90;99.90
15288;DHT22;7745;48.708;9.026;2022-12-26T18:50:40;7.90;99.90
15288;DHT22;7745;48.708;9.026;2022-12-26T18:53:07;7.90;99.90
15288;DHT22;7745;48.708;9.026;2022-12-26T18:55:34;7.90;99.90
15288;DHT22;7745;48.708;9.026;2022-12-26T18:58:01;7.90;99.90
15288;DHT22;7745;48.708;9.026;2022-12-26T19:00:27;7.90;99.90
15288;DHT22;7745;48.708;9.026;2022-12-26T19:02:56;8.10;99.90
15288;DHT22;7745;48.708;9.026;2022-12-26T19:05:25;7.80;99.90
15288;DHT22;7745;48.708;9.026;2022-12-26T19:07:52;7.70;99.90
15288;DHT22;7745;48.708;9.026;2022-12-26T19:10:21;7.70;99.90
15288;DHT22;7745;48.708;9.026;2022-12-26T19:12:49;7.60;99.90
15288;DHT22;7745;48.708;9.026;2022-12-26T19:15:16;7.90;99.90
15288;DHT22;7745;48.708;9.026;2022-12-26T19:17:43;7.80;99.90
15288;DHT22;7745;48.708;9.026;2022-12-26T19:20:17;7.60;99.90
15288;DHT22;7745;48.708;9.026;2022-12-26T19:22:45;7.80;99.90
15288;DHT22;7745;48.708;9.026;2022-12-26T19:25:12;7.60;99.90
15288;DHT22;7745;48.708;9.026;2022-12-26T19:27:39;7.60;99.90
15288;DHT22;7745;48.708;9.026;2022-12-26T19:30:07;7.60;99.90
15288;DHT22;7745;48.708;9.026;2022-12-26T19:32:34;7.60;99.90
15288;DHT22;7745;48.708;9.026;2022-12-26T19:35:00;7.60;99.90
15288;DHT22;7745;48.708;9.026;2022-12-26T19:37:29;7.60;99.90
15288;DHT22;7745;48.708;9.026;2022-12-26T19:39:56;7.70;99.90
15288;DHT22;7745;48.708;9.026;2022-12-26T19:42:23;7.70;99.90
15288;DHT22;7745;48.708;9.026;2022-12-26T19:44:50;7.80;99.90
15288;DHT22;7745;48.708;9.026;2022-12-26T19:47:17;7.70;99.90
15288;DHT22;7745;48.708;9.026;2022-12-26T19:49:44;7.90;99.90
15288;DHT22;7745;48.708;9.026;2022-12-26T19:52:11;7.70;99.90
15288;DHT22;7745;48.708;9.026;2022-12-26T19:54:39;8.20;99.90
15288;DHT22;7745;48.708;9.026;2022-12-26T19:57:07;8.20;99.90
15288;DHT22;7745;48.708;9.026;2022-12-26T19:59:34;7.90;99.90
15288;DHT22;7745;48.708;9.026;2022-12-26T20:02:01;7.70;99.90
15288;DHT22;7745;48.708;9.026;2022-12-26T20:04:28;7.70;99.90
15288;DHT22;7745;48.708;9.026;2022-12-26T20:06:57;7.80;99.90
15288;DHT22;7745;48.708;9.026;2022-12-26T20:09:24;7.70;99.90
15288;DHT22;7745;48.708;9.026;2022-12-26T20:11:53;7.80;99.90
15288;DHT22;7745;48.708;9.026;2022-12-26T20:14:22;7.70;99.90
15288;DHT22;7745;48.708;9.026;2022-12-26T20:16:53;7.70;99.90